createdAt,value
2023-03-10T00:00:05.841Z,7.23
2023-03-10T00:05:08.334Z,7.24
2023-03-10T00:10:18.298Z,7.23
2023-03-10T00:15:23.529Z,7.25
2023-03-10T00:20:25.511Z,7.32
2023-03-10T00:25:27.444Z,7.37
2023-03-10T00:30:30.686Z,7.42
2023-03-10T00:35:35.804Z,7.46
2023-03-10T00:40:38.534Z,7.49
2023-03-10T00:45:40.880Z,7.53
2023-03-10T00:50:45.670Z,7.58
2023-03-10T00:56:08.081Z,7.58
2023-03-10T01:01:16.016Z,7.55
2023-03-10T01:06:18.237Z,7.49
2023-03-10T01:11:23.750Z,7.44
2023-03-10T01:16:26.750Z,7.40
2023-03-10T01:21:32.610Z,7.37
2023-03-10T01:26:34.782Z,7.33
2023-03-10T01:31:36.623Z,7.25
2023-03-10T01:36:41.358Z,7.17
2023-03-10T01:41:43.135Z,7.12
2023-03-10T01:46:55.932Z,7.09
2023-03-10T01:52:08.670Z,7.07
2023-03-10T01:57:13.522Z,7.04
2023-03-10T02:02:15.680Z,7.06
2023-03-10T02:07:21.550Z,7.10
2023-03-10T02:12:23.631Z,7.09
2023-03-10T02:17:27.507Z,7.04
2023-03-10T02:22:29.704Z,7.00
2023-03-10T02:27:36.691Z,6.95
2023-03-10T02:32:43.167Z,6.92
2023-03-10T02:38:08.864Z,6.89
2023-03-10T02:43:34.648Z,6.89
2023-03-10T02:48:50.911Z,6.97
2023-03-10T02:54:00.361Z,7.10
2023-03-10T02:59:04.195Z,7.15
2023-03-10T03:04:07.195Z,7.16
2023-03-10T03:09:09.043Z,7.16
2023-03-10T03:14:10.856Z,7.15
2023-03-10T03:19:14.458Z,7.10
2023-03-10T03:24:18.653Z,6.99
2023-03-10T03:29:20.471Z,6.92
2023-03-10T03:34:32.497Z,6.85
2023-03-10T03:39:36.607Z,6.80
2023-03-10T03:44:40.999Z,6.73
2023-03-10T03:49:43.063Z,6.61
2023-03-10T03:54:46.141Z,6.50
2023-03-10T03:59:48.281Z,6.39
2023-03-10T04:04:50.496Z,6.33
2023-03-10T04:09:53.042Z,6.28
2023-03-10T04:14:54.828Z,6.22
2023-03-10T04:20:06.680Z,6.12
2023-03-10T04:25:09.942Z,5.97
2023-03-10T04:30:13.941Z,5.87
2023-03-10T04:35:17.838Z,5.83
2023-03-10T04:40:20.121Z,5.82
2023-03-10T04:45:23.018Z,5.80
2023-03-10T04:50:27.384Z,5.74
2023-03-10T04:55:29.739Z,5.68
2023-03-10T05:00:32.613Z,5.61
2023-03-10T05:05:37.541Z,5.55
2023-03-10T05:10:41.181Z,5.50
2023-03-10T05:15:43.176Z,5.33
2023-03-10T05:20:45.280Z,5.44
2023-03-10T05:25:48.650Z,5.44
2023-03-10T05:30:50.730Z,5.57
2023-03-10T05:35:53.000Z,5.71
2023-03-10T05:40:54.948Z,5.88
2023-03-10T05:45:58.457Z,6.05
2023-03-10T05:51:03.848Z,6.21
2023-03-10T05:56:12.022Z,6.36
2023-03-10T06:01:14.539Z,6.56
2023-03-10T06:06:16.313Z,6.75
2023-03-10T06:11:20.849Z,6.99
2023-03-10T06:16:22.547Z,7.24
2023-03-10T06:21:25.156Z,7.52
2023-03-10T06:26:26.939Z,7.90
2023-03-10T06:31:29.768Z,8.33
2023-03-10T06:36:34.442Z,8.76
2023-03-10T06:41:37.162Z,9.10
2023-03-10T06:46:38.867Z,9.33
2023-03-10T06:51:40.674Z,9.44
2023-03-10T06:56:42.362Z,9.44
2023-03-10T07:01:44.810Z,9.48
2023-03-10T07:06:46.533Z,9.54
2023-03-10T07:11:48.203Z,9.62
2023-03-10T07:16:49.899Z,9.71
2023-03-10T07:21:51.630Z,9.83
2023-03-10T07:26:53.297Z,9.86
2023-03-10T07:31:55.140Z,10.21
2023-03-10T07:36:56.844Z,10.43
2023-03-10T07:42:00.115Z,10.62
2023-03-10T07:47:01.963Z,10.79
2023-03-10T07:52:04.126Z,10.97
2023-03-10T07:57:06.032Z,11.18
2023-03-10T08:02:11.057Z,11.35
2023-03-10T08:07:12.804Z,11.53
2023-03-10T08:12:14.508Z,11.73
2023-03-10T08:17:16.212Z,12.00
2023-03-10T08:22:18.000Z,12.26
2023-03-10T08:27:19.763Z,12.49
2023-03-10T08:32:21.508Z,12.71
2023-03-10T08:37:23.256Z,13.02
2023-03-10T08:42:25.383Z,13.40
2023-03-10T08:47:29.846Z,13.81
2023-03-10T08:52:32.838Z,14.26
2023-03-10T08:57:36.028Z,14.61
2023-03-10T09:02:39.374Z,14.82
2023-03-10T09:07:43.592Z,14.71
2023-03-10T09:12:45.857Z,14.91
2023-03-10T09:17:48.124Z,14.99
2023-03-10T09:22:49.988Z,15.07
2023-03-10T09:27:51.889Z,15.09
2023-03-10T09:32:55.852Z,15.10
2023-03-10T09:37:57.842Z,15.19
2023-03-10T09:43:02.989Z,15.41
2023-03-10T09:48:25.352Z,15.61
2023-03-10T09:53:28.011Z,15.68
2023-03-10T09:58:40.972Z,15.60
2023-03-10T10:03:53.837Z,15.43
2023-03-10T10:09:06.083Z,15.27
2023-03-10T10:14:38.426Z,15.08
2023-03-10T10:19:44.232Z,14.88
2023-03-10T10:25:02.810Z,14.80
2023-03-10T10:30:34.953Z,14.85
2023-03-10T10:35:40.357Z,15.02
2023-03-10T10:41:10.028Z,15.27
2023-03-10T10:46:14.522Z,15.65
2023-03-10T10:51:28.832Z,15.93
2023-03-10T10:56:30.688Z,16.19
2023-03-10T11:01:47.865Z,16.44
2023-03-10T11:06:50.804Z,16.56
2023-03-10T11:12:14.687Z,16.67
2023-03-10T11:17:33.216Z,16.87
2023-03-10T11:22:44.835Z,17.11
2023-03-10T11:27:49.543Z,17.55
2023-03-10T11:32:57.691Z,17.83
2023-03-10T11:38:18.019Z,17.62
2023-03-10T11:43:35.094Z,17.41
2023-03-10T11:48:48.818Z,17.33
2023-03-10T11:53:52.504Z,17.48
2023-03-10T11:59:20.304Z,17.71
2023-03-10T12:04:47.307Z,17.92
2023-03-10T12:09:55.012Z,17.99
2023-03-10T12:15:00.213Z,17.89
2023-03-10T12:20:12.984Z,17.84
2023-03-10T12:25:30.218Z,17.64
2023-03-10T12:31:01.793Z,17.45
2023-03-10T12:36:34.245Z,17.48
2023-03-10T12:41:43.797Z,17.52
2023-03-10T12:47:20.437Z,17.46
2023-03-10T12:52:40.905Z,17.21
2023-03-10T12:58:13.645Z,17.14
2023-03-10T13:03:26.302Z,17.10
2023-03-10T13:08:50.907Z,16.97
2023-03-10T13:14:01.400Z,16.87
2023-03-10T13:19:03.898Z,16.89
2023-03-10T13:24:36.004Z,17.10
2023-03-10T13:29:37.810Z,17.14
2023-03-10T13:34:39.484Z,16.92
2023-03-10T13:39:41.823Z,16.78
2023-03-10T13:44:44.570Z,16.64
2023-03-10T13:49:59.704Z,16.60
2023-03-10T13:55:16.815Z,16.71
2023-03-10T14:00:22.648Z,16.82
2023-03-10T14:05:38.105Z,16.85
2023-03-10T14:10:39.814Z,16.99
2023-03-10T14:15:54.030Z,17.05
2023-03-10T14:20:56.777Z,16.98
2023-03-10T14:25:58.735Z,16.89
2023-03-10T14:31:02.701Z,16.82
2023-03-10T14:36:10.811Z,16.76
2023-03-10T14:41:13.775Z,16.75
2023-03-10T14:46:16.007Z,16.66
2023-03-10T14:51:32.517Z,16.56
2023-03-10T14:56:36.077Z,16.53
2023-03-10T15:01:37.866Z,16.59
2023-03-10T15:06:39.561Z,16.69
2023-03-10T15:11:41.886Z,16.56
2023-03-10T15:16:43.842Z,16.37
2023-03-10T15:21:45.792Z,16.11
2023-03-10T15:26:48.410Z,15.80
2023-03-10T15:31:51.098Z,15.53
2023-03-10T15:36:52.800Z,15.30
2023-03-10T15:41:54.476Z,15.12
2023-03-10T15:46:56.476Z,14.91
2023-03-10T15:51:58.558Z,14.68
2023-03-10T15:57:00.472Z,14.46
2023-03-10T16:02:02.398Z,14.25
2023-03-10T16:07:05.802Z,14.03
2023-03-10T16:12:07.831Z,13.78
2023-03-10T16:17:11.608Z,13.50
2023-03-10T16:22:13.383Z,13.22
2023-03-10T16:27:15.810Z,12.95
2023-03-10T16:32:19.719Z,12.71
2023-03-10T16:37:28.455Z,12.49
2023-03-10T16:42:35.649Z,12.30
2023-03-10T16:47:37.802Z,12.13
2023-03-10T16:52:42.290Z,12.02
2023-03-10T16:57:45.898Z,11.89
2023-03-10T17:02:47.511Z,11.76
2023-03-10T17:07:55.416Z,11.64
2023-03-10T17:12:59.307Z,11.53
2023-03-10T17:18:01.117Z,11.48
2023-03-10T17:23:03.107Z,11.44
2023-03-10T17:28:05.644Z,11.42
2023-03-10T17:33:08.007Z,11.37
2023-03-10T17:38:09.888Z,11.31
2023-03-10T17:43:29.618Z,11.24
2023-03-10T17:48:35.459Z,11.14
2023-03-10T17:53:37.131Z,11.07
2023-03-10T17:58:39.733Z,10.94
2023-03-10T18:03:42.778Z,10.82
2023-03-10T18:08:45.451Z,10.73
2023-03-10T18:13:48.570Z,10.73
2023-03-10T18:18:50.938Z,10.75
2023-03-10T18:23:53.258Z,10.78
2023-03-10T18:28:56.796Z,10.76
2023-03-10T18:33:59.246Z,10.71
2023-03-10T18:39:03.721Z,10.63
2023-03-10T18:44:05.692Z,10.54
2023-03-10T18:49:07.754Z,10.47
2023-03-10T18:54:09.774Z,10.43
2023-03-10T18:59:11.710Z,10.43
2023-03-10T19:04:13.519Z,10.44
2023-03-10T19:09:15.451Z,10.39
2023-03-10T19:14:17.392Z,10.31
2023-03-10T19:19:19.300Z,10.21
2023-03-10T19:24:21.175Z,10.07
2023-03-10T19:29:25.078Z,9.95
2023-03-10T19:34:26.941Z,9.85
2023-03-10T19:39:29.950Z,9.73
2023-03-10T19:44:32.087Z,9.62
2023-03-10T19:49:34.308Z,9.55
2023-03-10T19:54:36.118Z,9.57
2023-03-10T19:59:37.904Z,9.65
2023-03-10T20:04:40.004Z,9.76
2023-03-10T20:09:41.764Z,9.88
2023-03-10T20:14:43.481Z,9.97
2023-03-10T20:19:46.382Z,9.98
2023-03-10T20:24:48.262Z,9.95
2023-03-10T20:29:52.256Z,9.90
2023-03-10T20:34:53.876Z,9.88
2023-03-10T20:39:55.708Z,9.88
2023-03-10T20:44:57.592Z,9.88
2023-03-10T20:49:59.668Z,9.88
2023-03-10T20:55:02.950Z,9.84
2023-03-10T21:00:06.999Z,9.77
2023-03-10T21:05:09.479Z,9.71
2023-03-10T21:10:13.533Z,9.70
2023-03-10T21:15:16.863Z,9.73
2023-03-10T21:20:22.815Z,9.76
2023-03-10T21:25:28.291Z,9.76
2023-03-10T21:30:32.994Z,9.72
2023-03-10T21:35:38.542Z,9.68
2023-03-10T21:40:40.728Z,9.64
2023-03-10T21:45:42.471Z,9.64
2023-03-10T21:50:44.280Z,9.60
2023-03-10T21:55:45.955Z,9.51
2023-03-10T22:00:48.000Z,9.33
2023-03-10T22:05:50.519Z,9.11
2023-03-10T22:10:54.012Z,8.90
2023-03-10T22:16:01.805Z,8.72
2023-03-10T22:21:03.860Z,8.60
2023-03-10T22:26:05.883Z,8.54
2023-03-10T22:31:09.636Z,8.50
2023-03-10T22:36:20.235Z,8.45
2023-03-10T22:41:23.667Z,8.39
2023-03-10T22:46:26.255Z,8.39
2023-03-10T22:51:29.324Z,8.50
2023-03-10T22:56:41.935Z,8.62
2023-03-10T23:01:44.236Z,8.75
2023-03-10T23:06:46.020Z,8.85
2023-03-10T23:11:49.030Z,8.95
2023-03-10T23:16:50.817Z,9.17
2023-03-10T23:21:52.484Z,9.35
2023-03-10T23:26:54.152Z,9.33
2023-03-10T23:31:56.001Z,9.47
2023-03-10T23:36:58.285Z,9.45
2023-03-10T23:42:00.111Z,9.46
2023-03-10T23:47:02.003Z,9.44
2023-03-10T23:52:03.923Z,9.42
2023-03-10T23:57:05.604Z,9.37
